sensor_id;sensor_type;location;lat;lon;timestamp;temperature;humidity
76750;DHT22;66447;35.844;14.468;2023-05-10T00:08:08;15.27;118.99
76750;DHT22;66447;35.844;14.468;2023-05-10T00:23:09;15.30;118.99
76750;DHT22;66447;35.844;14.468;2023-05-10T00:38:12;14.72;118.99
76750;DHT22;66447;35.844;14.468;2023-05-10T00:53:14;15.07;118.99
76750;DHT22;66447;35.844;14.468;2023-05-10T01:08:16;14.75;118.99
76750;DHT22;66447;35.844;14.468;2023-05-10T01:23:35;14.87;118.99
76750;DHT22;66447;35.844;14.468;2023-05-10T01:38:51;15.09;118.99
76750;DHT22;66447;35.844;14.468;2023-05-10T01:53:59;14.59;118.99
76750;DHT22;66447;35.844;14.468;2023-05-10T02:09:02;14.65;118.99
76750;DHT22;66447;35.844;14.468;2023-05-10T02:24:04;14.52;118.99
76750;DHT22;66447;35.844;14.468;2023-05-10T02:39:06;14.65;118.99
76750;DHT22;66447;35.844;14.468;2023-05-10T02:54:19;14.63;118.99
76750;DHT22;66447;35.844;14.468;2023-05-10T03:09:21;14.49;118.99
76750;DHT22;66447;35.844;14.468;2023-05-10T03:24:23;14.05;118.99
76750;DHT22;66447;35.844;14.468;2023-05-10T03:39:26;14.73;118.99
76750;DHT22;66447;35.844;14.468;2023-05-10T03:54:28;14.11;118.99
76750;DHT22;66447;35.844;14.468;2023-05-10T04:09:29;14.44;118.99
76750;DHT22;66447;35.844;14.468;2023-05-10T04:24:30;14.68;118.99
76750;DHT22;66447;35.844;14.468;2023-05-10T04:39:31;14.71;118.99
76750;DHT22;66447;35.844;14.468;2023-05-10T04:54:33;14.81;118.99
76750;DHT22;66447;35.844;14.468;2023-05-10T05:09:35;15.71;118.99
76750;DHT22;66447;35.844;14.468;2023-05-10T05:24:37;15.45;118.99
76750;DHT22;66447;35.844;14.468;2023-05-10T05:39:39;15.69;118.99
76750;DHT22;66447;35.844;14.468;2023-05-10T05:54:40;16.08;118.99
76750;DHT22;66447;35.844;14.468;2023-05-10T06:09:41;17.00;118.99
76750;DHT22;66447;35.844;14.468;2023-05-10T06:24:43;17.02;118.99
76750;DHT22;66447;35.844;14.468;2023-05-10T06:39:45;16.78;118.99
76750;DHT22;66447;35.844;14.468;2023-05-10T06:54:46;17.13;118.99
76750;DHT22;66447;35.844;14.468;2023-05-10T07:09:47;17.35;118.99
76750;DHT22;66447;35.844;14.468;2023-05-10T07:24:50;17.45;118.99
76750;DHT22;66447;35.844;14.468;2023-05-10T07:39:51;17.95;118.99
76750;DHT22;66447;35.844;14.468;2023-05-10T07:54:53;18.09;118.99
76750;DHT22;66447;35.844;14.468;2023-05-10T08:09:55;18.64;118.99
76750;DHT22;66447;35.844;14.468;2023-05-10T08:24:56;18.89;118.99
76750;DHT22;66447;35.844;14.468;2023-05-10T08:39:58;18.21;118.99
76750;DHT22;66447;35.844;14.468;2023-05-10T08:55:00;18.43;118.99
76750;DHT22;66447;35.844;14.468;2023-05-10T09:10:02;17.96;118.99
76750;DHT22;66447;35.844;14.468;2023-05-10T09:25:13;18.20;118.99
76750;DHT22;66447;35.844;14.468;2023-05-10T09:40:16;19.69;118.99
76750;DHT22;66447;35.844;14.468;2023-05-10T09:55:22;18.65;118.99
76750;DHT22;66447;35.844;14.468;2023-05-10T10:10:25;19.01;118.99
76750;DHT22;66447;35.844;14.468;2023-05-10T10:25:26;19.59;118.99
76750;DHT22;66447;35.844;14.468;2023-05-10T10:40:32;19.33;118.99
76750;DHT22;66447;35.844;14.468;2023-05-10T10:55:34;19.14;118.99
76750;DHT22;66447;35.844;14.468;2023-05-10T11:10:35;19.62;118.99
76750;DHT22;66447;35.844;14.468;2023-05-10T11:25:44;19.39;118.99
76750;DHT22;66447;35.844;14.468;2023-05-10T11:40:46;18.76;118.99
76750;DHT22;66447;35.844;14.468;2023-05-10T11:55:48;18.86;118.99
76750;DHT22;66447;35.844;14.468;2023-05-10T12:10:49;20.15;118.99
76750;DHT22;66447;35.844;14.468;2023-05-10T12:25:50;19.45;118.99
76750;DHT22;66447;35.844;14.468;2023-05-10T12:40:57;18.80;118.99
76750;DHT22;66447;35.844;14.468;2023-05-10T12:55:59;19.54;118.99
76750;DHT22;66447;35.844;14.468;2023-05-10T13:11:01;17.94;118.99
76750;DHT22;66447;35.844;14.468;2023-05-10T13:26:03;17.56;118.99
76750;DHT22;66447;35.844;14.468;2023-05-10T13:41:05;17.32;118.99
76750;DHT22;66447;35.844;14.468;2023-05-10T13:56:06;17.21;118.99
76750;DHT22;66447;35.844;14.468;2023-05-10T14:11:07;17.89;118.99
76750;DHT22;66447;35.844;14.468;2023-05-10T14:26:09;16.87;118.99
76750;DHT22;66447;35.844;14.468;2023-05-10T14:41:10;17.32;118.99
76750;DHT22;66447;35.844;14.468;2023-05-10T14:56:15;18.80;118.99
76750;DHT22;66447;35.844;14.468;2023-05-10T15:11:16;18.53;118.99
76750;DHT22;66447;35.844;14.468;2023-05-10T15:26:18;17.88;118.99
76750;DHT22;66447;35.844;14.468;2023-05-10T15:41:19;17.76;118.99
76750;DHT22;66447;35.844;14.468;2023-05-10T15:56:21;18.35;118.99
76750;DHT22;66447;35.844;14.468;2023-05-10T16:11:22;15.91;118.99
76750;DHT22;66447;35.844;14.468;2023-05-10T16:26:24;16.14;118.99
76750;DHT22;66447;35.844;14.468;2023-05-10T16:41:26;16.30;118.99
76750;DHT22;66447;35.844;14.468;2023-05-10T16:56:28;16.08;118.99
76750;DHT22;66447;35.844;14.468;2023-05-10T17:11:29;15.89;118.99
76750;DHT22;66447;35.844;14.468;2023-05-10T17:26:31;15.82;118.99
76750;DHT22;66447;35.844;14.468;2023-05-10T17:41:34;15.74;118.99
76750;DHT22;66447;35.844;14.468;2023-05-10T17:56:36;15.91;118.99
76750;DHT22;66447;35.844;14.468;2023-05-10T18:11:37;15.45;118.99
76750;DHT22;66447;35.844;14.468;2023-05-10T18:26:39;15.91;118.99
76750;DHT22;66447;35.844;14.468;2023-05-10T18:41:40;15.92;118.99
76750;DHT22;66447;35.844;14.468;2023-05-10T18:56:43;16.59;118.99
76750;DHT22;66447;35.844;14.468;2023-05-10T19:11:45;16.66;118.99
76750;DHT22;66447;35.844;14.468;2023-05-10T19:26:46;16.74;118.99
76750;DHT22;66447;35.844;14.468;2023-05-10T19:41:48;17.00;118.99
76750;DHT22;66447;35.844;14.468;2023-05-10T19:56:49;16.50;118.99
76750;DHT22;66447;35.844;14.468;2023-05-10T20:11:50;16.96;118.99
76750;DHT22;66447;35.844;14.468;2023-05-10T20:26:52;16.61;118.99
76750;DHT22;66447;35.844;14.468;2023-05-10T20:41:54;16.41;118.99
76750;DHT22;66447;35.844;14.468;2023-05-10T20:56:55;16.52;118.99
76750;DHT22;66447;35.844;14.468;2023-05-10T21:11:57;16.51;118.99
76750;DHT22;66447;35.844;14.468;2023-05-10T21:26:58;16.62;118.99
76750;DHT22;66447;35.844;14.468;2023-05-10T21:41:59;17.15;118.99
76750;DHT22;66447;35.844;14.468;2023-05-10T21:57:01;17.39;118.99
76750;DHT22;66447;35.844;14.468;2023-05-10T22:12:02;17.06;118.99
76750;DHT22;66447;35.844;14.468;2023-05-10T22:27:04;17.24;118.99
76750;DHT22;66447;35.844;14.468;2023-05-10T22:42:06;17.04;118.99
76750;DHT22;66447;35.844;14.468;2023-05-10T22:57:07;16.90;118.99
76750;DHT22;66447;35.844;14.468;2023-05-10T23:12:09;16.15;118.99
76750;DHT22;66447;35.844;14.468;2023-05-10T23:27:10;16.57;118.99
76750;DHT22;66447;35.844;14.468;2023-05-10T23:42:12;16.75;118.99
76750;DHT22;66447;35.844;14.468;2023-05-10T23:57:13;16.94;118.99
